sensor_id;sensor_type;location;lat;lon;timestamp;P1;durP1;ratioP1;P2;durP2;ratioP2
83423;SDS011;73355;49.044;8.686;2024-01-10T00:01:31;9.13;;;3.65;;
83423;SDS011;73355;49.044;8.686;2024-01-10T00:03:56;10.32;;;3.72;;
83423;SDS011;73355;49.044;8.686;2024-01-10T00:06:21;10.35;;;3.85;;
83423;SDS011;73355;49.044;8.686;2024-01-10T00:08:48;9.27;;;3.50;;
83423;SDS011;73355;49.044;8.686;2024-01-10T00:11:14;8.35;;;3.78;;
83423;SDS011;73355;49.044;8.686;2024-01-10T00:13:39;8.68;;;3.30;;
83423;SDS011;73355;49.044;8.686;2024-01-10T00:16:04;10.18;;;3.65;;
83423;SDS011;73355;49.044;8.686;2024-01-10T00:18:30;11.98;;;4.25;;
83423;SDS011;73355;49.044;8.686;2024-01-10T00:20:56;10.93;;;3.97;;
83423;SDS011;73355;49.044;8.686;2024-01-10T00:23:21;13.35;;;4.28;;
83423;SDS011;73355;49.044;8.686;2024-01-10T00:25:47;9.52;;;3.60;;
83423;SDS011;73355;49.044;8.686;2024-01-10T00:28:13;10.02;;;3.92;;
83423;SDS011;73355;49.044;8.686;2024-01-10T00:30:41;9.43;;;4.10;;
83423;SDS011;73355;49.044;8.686;2024-01-10T00:33:07;6.78;;;3.63;;
83423;SDS011;73355;49.044;8.686;2024-01-10T00:35:32;12.03;;;3.77;;
83423;SDS011;73355;49.044;8.686;2024-01-10T00:37:57;8.95;;;4.03;;
83423;SDS011;73355;49.044;8.686;2024-01-10T00:40:23;10.02;;;3.95;;
83423;SDS011;73355;49.044;8.686;2024-01-10T00:42:48;10.43;;;3.45;;
83423;SDS011;73355;49.044;8.686;2024-01-10T00:45:14;8.70;;;4.22;;
83423;SDS011;73355;49.044;8.686;2024-01-10T00:47:40;11.10;;;4.30;;
83423;SDS011;73355;49.044;8.686;2024-01-10T00:50:06;10.23;;;4.13;;
83423;SDS011;73355;49.044;8.686;2024-01-10T00:52:31;10.85;;;4.00;;
83423;SDS011;73355;49.044;8.686;2024-01-10T00:54:57;11.13;;;4.73;;
83423;SDS011;73355;49.044;8.686;2024-01-10T00:57:22;8.18;;;4.03;;
83423;SDS011;73355;49.044;8.686;2024-01-10T00:59:47;11.50;;;4.20;;
83423;SDS011;73355;49.044;8.686;2024-01-10T01:02:13;11.07;;;3.78;;
83423;SDS011;73355;49.044;8.686;2024-01-10T01:04:38;11.37;;;4.50;;
83423;SDS011;73355;49.044;8.686;2024-01-10T01:07:03;8.27;;;3.67;;
83423;SDS011;73355;49.044;8.686;2024-01-10T01:09:29;12.25;;;4.28;;
83423;SDS011;73355;49.044;8.686;2024-01-10T01:11:54;10.25;;;3.95;;
83423;SDS011;73355;49.044;8.686;2024-01-10T01:14:20;10.13;;;3.95;;
83423;SDS011;73355;49.044;8.686;2024-01-10T01:16:45;14.05;;;4.75;;
83423;SDS011;73355;49.044;8.686;2024-01-10T01:19:10;11.90;;;4.33;;
83423;SDS011;73355;49.044;8.686;2024-01-10T01:21:36;11.63;;;4.30;;
83423;SDS011;73355;49.044;8.686;2024-01-10T01:24:01;9.82;;;4.05;;
83423;SDS011;73355;49.044;8.686;2024-01-10T01:26:26;11.70;;;3.80;;
83423;SDS011;73355;49.044;8.686;2024-01-10T01:28:52;10.32;;;4.38;;
83423;SDS011;73355;49.044;8.686;2024-01-10T01:31:17;13.00;;;4.05;;
83423;SDS011;73355;49.044;8.686;2024-01-10T01:33:43;15.80;;;5.25;;
83423;SDS011;73355;49.044;8.686;2024-01-10T01:36:08;11.90;;;4.27;;
83423;SDS011;73355;49.044;8.686;2024-01-10T01:38:34;14.33;;;4.57;;
83423;SDS011;73355;49.044;8.686;2024-01-10T01:41:00;13.30;;;4.28;;
83423;SDS011;73355;49.044;8.686;2024-01-10T01:43:26;12.40;;;4.32;;
83423;SDS011;73355;49.044;8.686;2024-01-10T01:45:52;11.70;;;4.22;;
83423;SDS011;73355;49.044;8.686;2024-01-10T01:48:19;11.43;;;3.63;;
83423;SDS011;73355;49.044;8.686;2024-01-10T01:50:45;14.30;;;4.47;;
83423;SDS011;73355;49.044;8.686;2024-01-10T01:53:15;12.43;;;4.60;;
83423;SDS011;73355;49.044;8.686;2024-01-10T01:55:42;10.38;;;4.03;;
83423;SDS011;73355;49.044;8.686;2024-01-10T01:58:09;10.50;;;4.53;;
83423;SDS011;73355;49.044;8.686;2024-01-10T02:00:35;9.30;;;4.25;;
83423;SDS011;73355;49.044;8.686;2024-01-10T02:03:01;13.63;;;4.80;;
83423;SDS011;73355;49.044;8.686;2024-01-10T02:05:27;15.32;;;4.53;;
83423;SDS011;73355;49.044;8.686;2024-01-10T02:07:53;10.77;;;4.05;;
83423;SDS011;73355;49.044;8.686;2024-01-10T02:12:45;11.82;;;4.57;;
83423;SDS011;73355;49.044;8.686;2024-01-10T02:15:11;12.52;;;4.60;;
83423;SDS011;73355;49.044;8.686;2024-01-10T02:17:38;9.75;;;3.88;;
83423;SDS011;73355;49.044;8.686;2024-01-10T02:22:35;10.45;;;4.13;;
83423;SDS011;73355;49.044;8.686;2024-01-10T02:25:00;9.93;;;4.20;;
83423;SDS011;73355;49.044;8.686;2024-01-10T02:27:26;13.48;;;4.93;;
83423;SDS011;73355;49.044;8.686;2024-01-10T02:29:52;10.70;;;4.85;;
83423;SDS011;73355;49.044;8.686;2024-01-10T02:32:19;13.63;;;4.63;;
83423;SDS011;73355;49.044;8.686;2024-01-10T02:34:44;13.43;;;4.50;;
83423;SDS011;73355;49.044;8.686;2024-01-10T02:37:10;15.82;;;4.32;;
83423;SDS011;73355;49.044;8.686;2024-01-10T02:39:35;12.05;;;4.38;;
83423;SDS011;73355;49.044;8.686;2024-01-10T02:42:00;13.83;;;4.40;;
83423;SDS011;73355;49.044;8.686;2024-01-10T02:44:26;10.33;;;4.53;;
83423;SDS011;73355;49.044;8.686;2024-01-10T02:46:53;10.52;;;4.60;;
83423;SDS011;73355;49.044;8.686;2024-01-10T02:49:18;11.25;;;4.35;;
83423;SDS011;73355;49.044;8.686;2024-01-10T02:51:44;11.27;;;5.18;;
83423;SDS011;73355;49.044;8.686;2024-01-10T02:54:09;12.55;;;4.50;;
83423;SDS011;73355;49.044;8.686;2024-01-10T02:56:34;14.20;;;4.80;;
83423;SDS011;73355;49.044;8.686;2024-01-10T02:59:00;11.40;;;4.93;;
83423;SDS011;73355;49.044;8.686;2024-01-10T03:01:25;13.95;;;5.50;;
83423;SDS011;73355;49.044;8.686;2024-01-10T03:03:51;16.13;;;4.45;;
83423;SDS011;73355;49.044;8.686;2024-01-10T03:06:16;9.23;;;4.28;;
83423;SDS011;73355;49.044;8.686;2024-01-10T03:08:41;11.57;;;5.37;;
83423;SDS011;73355;49.044;8.686;2024-01-10T03:11:06;11.37;;;4.50;;
83423;SDS011;73355;49.044;8.686;2024-01-10T03:13:32;14.65;;;5.32;;
83423;SDS011;73355;49.044;8.686;2024-01-10T03:15:57;10.77;;;4.40;;
83423;SDS011;73355;49.044;8.686;2024-01-10T03:18:24;10.77;;;4.28;;
83423;SDS011;73355;49.044;8.686;2024-01-10T03:20:49;10.03;;;4.20;;
83423;SDS011;73355;49.044;8.686;2024-01-10T03:23:14;11.48;;;4.70;;
83423;SDS011;73355;49.044;8.686;2024-01-10T03:25:40;11.32;;;4.20;;
83423;SDS011;73355;49.044;8.686;2024-01-10T03:28:05;14.77;;;4.53;;
83423;SDS011;73355;49.044;8.686;2024-01-10T03:30:30;10.70;;;4.53;;
83423;SDS011;73355;49.044;8.686;2024-01-10T03:32:56;14.60;;;4.65;;
83423;SDS011;73355;49.044;8.686;2024-01-10T03:35:21;12.20;;;4.37;;
83423;SDS011;73355;49.044;8.686;2024-01-10T03:37:46;12.48;;;4.85;;
83423;SDS011;73355;49.044;8.686;2024-01-10T03:40:12;11.13;;;4.37;;
83423;SDS011;73355;49.044;8.686;2024-01-10T03:42:37;11.88;;;4.35;;
83423;SDS011;73355;49.044;8.686;2024-01-10T03:45:03;10.73;;;4.27;;
83423;SDS011;73355;49.044;8.686;2024-01-10T03:47:29;11.82;;;5.15;;
83423;SDS011;73355;49.044;8.686;2024-01-10T03:49:55;12.70;;;4.70;;
83423;SDS011;73355;49.044;8.686;2024-01-10T03:52:21;13.60;;;5.20;;
83423;SDS011;73355;49.044;8.686;2024-01-10T03:54:46;10.93;;;4.47;;
83423;SDS011;73355;49.044;8.686;2024-01-10T03:57:12;14.75;;;5.15;;
83423;SDS011;73355;49.044;8.686;2024-01-10T03:59:37;13.93;;;5.25;;
83423;SDS011;73355;49.044;8.686;2024-01-10T04:02:02;11.63;;;4.80;;
83423;SDS011;73355;49.044;8.686;2024-01-10T04:04:30;11.45;;;4.75;;
83423;SDS011;73355;49.044;8.686;2024-01-10T04:06:55;11.50;;;4.68;;
83423;SDS011;73355;49.044;8.686;2024-01-10T04:09:21;11.95;;;5.05;;
83423;SDS011;73355;49.044;8.686;2024-01-10T04:11:46;13.25;;;4.63;;
83423;SDS011;73355;49.044;8.686;2024-01-10T04:14:11;11.53;;;4.67;;
83423;SDS011;73355;49.044;8.686;2024-01-10T04:16:37;13.30;;;4.95;;
83423;SDS011;73355;49.044;8.686;2024-01-10T04:19:02;11.32;;;4.50;;
83423;SDS011;73355;49.044;8.686;2024-01-10T04:21:28;10.97;;;4.83;;
83423;SDS011;73355;49.044;8.686;2024-01-10T04:23:53;14.05;;;4.88;;
83423;SDS011;73355;49.044;8.686;2024-01-10T04:26:18;11.82;;;4.43;;
83423;SDS011;73355;49.044;8.686;2024-01-10T04:28:44;14.45;;;4.55;;
83423;SDS011;73355;49.044;8.686;2024-01-10T04:31:09;14.50;;;4.72;;
83423;SDS011;73355;49.044;8.686;2024-01-10T04:33:34;13.45;;;4.85;;
83423;SDS011;73355;49.044;8.686;2024-01-10T04:36:00;12.55;;;4.38;;
83423;SDS011;73355;49.044;8.686;2024-01-10T04:38:25;13.82;;;5.00;;
83423;SDS011;73355;49.044;8.686;2024-01-10T04:40:51;14.60;;;5.25;;
83423;SDS011;73355;49.044;8.686;2024-01-10T04:43:17;15.07;;;4.90;;
83423;SDS011;73355;49.044;8.686;2024-01-10T04:45:42;12.43;;;4.90;;
83423;SDS011;73355;49.044;8.686;2024-01-10T04:48:08;13.38;;;5.00;;
83423;SDS011;73355;49.044;8.686;2024-01-10T04:50:34;11.60;;;4.20;;
83423;SDS011;73355;49.044;8.686;2024-01-10T04:52:59;11.98;;;4.22;;
83423;SDS011;73355;49.044;8.686;2024-01-10T04:55:25;12.88;;;4.82;;
83423;SDS011;73355;49.044;8.686;2024-01-10T04:57:50;21.05;;;5.10;;
83423;SDS011;73355;49.044;8.686;2024-01-10T05:00:16;13.23;;;4.97;;
83423;SDS011;73355;49.044;8.686;2024-01-10T05:02:41;16.60;;;5.40;;
83423;SDS011;73355;49.044;8.686;2024-01-10T05:05:07;12.98;;;5.40;;
83423;SDS011;73355;49.044;8.686;2024-01-10T05:07:32;13.18;;;4.68;;
83423;SDS011;73355;49.044;8.686;2024-01-10T05:09:58;12.95;;;5.07;;
83423;SDS011;73355;49.044;8.686;2024-01-10T05:12:23;12.73;;;4.65;;
83423;SDS011;73355;49.044;8.686;2024-01-10T05:14:49;10.80;;;4.80;;
83423;SDS011;73355;49.044;8.686;2024-01-10T05:17:14;13.68;;;5.43;;
83423;SDS011;73355;49.044;8.686;2024-01-10T05:19:39;10.27;;;4.57;;
83423;SDS011;73355;49.044;8.686;2024-01-10T05:22:05;13.80;;;5.20;;
83423;SDS011;73355;49.044;8.686;2024-01-10T05:24:31;11.88;;;5.15;;
83423;SDS011;73355;49.044;8.686;2024-01-10T05:26:56;14.95;;;5.07;;
83423;SDS011;73355;49.044;8.686;2024-01-10T05:29:22;14.88;;;4.75;;
83423;SDS011;73355;49.044;8.686;2024-01-10T05:31:49;14.43;;;4.88;;
83423;SDS011;73355;49.044;8.686;2024-01-10T05:34:14;13.68;;;4.57;;
83423;SDS011;73355;49.044;8.686;2024-01-10T05:36:40;13.13;;;5.38;;
83423;SDS011;73355;49.044;8.686;2024-01-10T05:39:05;13.98;;;4.70;;
83423;SDS011;73355;49.044;8.686;2024-01-10T05:41:30;14.40;;;4.95;;
83423;SDS011;73355;49.044;8.686;2024-01-10T05:43:56;15.03;;;5.63;;
83423;SDS011;73355;49.044;8.686;2024-01-10T05:46:21;16.23;;;4.97;;
83423;SDS011;73355;49.044;8.686;2024-01-10T05:48:47;14.00;;;4.90;;
83423;SDS011;73355;49.044;8.686;2024-01-10T05:51:13;11.45;;;4.60;;
83423;SDS011;73355;49.044;8.686;2024-01-10T05:53:38;12.30;;;4.80;;
83423;SDS011;73355;49.044;8.686;2024-01-10T05:56:05;13.50;;;4.80;;
83423;SDS011;73355;49.044;8.686;2024-01-10T05:58:32;11.73;;;4.80;;
83423;SDS011;73355;49.044;8.686;2024-01-10T06:00:57;13.93;;;5.07;;
83423;SDS011;73355;49.044;8.686;2024-01-10T06:03:22;12.70;;;4.63;;
83423;SDS011;73355;49.044;8.686;2024-01-10T06:05:49;10.98;;;4.60;;
83423;SDS011;73355;49.044;8.686;2024-01-10T06:08:15;13.57;;;5.10;;
83423;SDS011;73355;49.044;8.686;2024-01-10T06:10:40;13.75;;;5.47;;
83423;SDS011;73355;49.044;8.686;2024-01-10T06:13:09;14.00;;;5.20;;
83423;SDS011;73355;49.044;8.686;2024-01-10T06:15:34;12.68;;;4.68;;
83423;SDS011;73355;49.044;8.686;2024-01-10T06:17:59;13.32;;;4.38;;
83423;SDS011;73355;49.044;8.686;2024-01-10T06:20:25;15.93;;;5.07;;
83423;SDS011;73355;49.044;8.686;2024-01-10T06:22:50;12.02;;;4.80;;
83423;SDS011;73355;49.044;8.686;2024-01-10T06:25:16;17.30;;;5.77;;
83423;SDS011;73355;49.044;8.686;2024-01-10T06:27:41;14.13;;;4.93;;
83423;SDS011;73355;49.044;8.686;2024-01-10T06:30:06;11.18;;;4.60;;
83423;SDS011;73355;49.044;8.686;2024-01-10T06:32:32;12.25;;;4.47;;
83423;SDS011;73355;49.044;8.686;2024-01-10T06:34:58;15.40;;;5.22;;
83423;SDS011;73355;49.044;8.686;2024-01-10T06:37:25;13.82;;;5.10;;
83423;SDS011;73355;49.044;8.686;2024-01-10T06:39:50;12.18;;;4.40;;
83423;SDS011;73355;49.044;8.686;2024-01-10T06:42:16;10.85;;;4.90;;
83423;SDS011;73355;49.044;8.686;2024-01-10T06:44:41;15.73;;;5.72;;
83423;SDS011;73355;49.044;8.686;2024-01-10T06:47:07;15.20;;;4.87;;
83423;SDS011;73355;49.044;8.686;2024-01-10T06:49:32;13.45;;;5.22;;
83423;SDS011;73355;49.044;8.686;2024-01-10T06:51:58;14.00;;;5.15;;
83423;SDS011;73355;49.044;8.686;2024-01-10T06:54:25;14.63;;;5.53;;
83423;SDS011;73355;49.044;8.686;2024-01-10T06:56:50;11.90;;;5.03;;
83423;SDS011;73355;49.044;8.686;2024-01-10T06:59:16;13.63;;;5.10;;
83423;SDS011;73355;49.044;8.686;2024-01-10T07:01:41;15.20;;;5.38;;
83423;SDS011;73355;49.044;8.686;2024-01-10T07:04:07;15.27;;;5.10;;
83423;SDS011;73355;49.044;8.686;2024-01-10T07:06:32;11.83;;;4.33;;
83423;SDS011;73355;49.044;8.686;2024-01-10T07:08:58;14.00;;;5.07;;
83423;SDS011;73355;49.044;8.686;2024-01-10T07:11:23;11.45;;;4.80;;
83423;SDS011;73355;49.044;8.686;2024-01-10T07:13:49;13.75;;;5.00;;
83423;SDS011;73355;49.044;8.686;2024-01-10T07:16:14;14.32;;;5.20;;
83423;SDS011;73355;49.044;8.686;2024-01-10T07:18:41;14.60;;;4.82;;
83423;SDS011;73355;49.044;8.686;2024-01-10T07:21:06;13.80;;;5.03;;
83423;SDS011;73355;49.044;8.686;2024-01-10T07:23:34;14.55;;;5.25;;
83423;SDS011;73355;49.044;8.686;2024-01-10T07:26:00;15.73;;;5.30;;
83423;SDS011;73355;49.044;8.686;2024-01-10T07:28:25;15.47;;;5.30;;
83423;SDS011;73355;49.044;8.686;2024-01-10T07:30:50;17.27;;;5.17;;
83423;SDS011;73355;49.044;8.686;2024-01-10T07:33:16;13.70;;;4.97;;
83423;SDS011;73355;49.044;8.686;2024-01-10T07:35:41;13.10;;;5.10;;
83423;SDS011;73355;49.044;8.686;2024-01-10T07:38:06;15.82;;;5.47;;
83423;SDS011;73355;49.044;8.686;2024-01-10T07:40:35;13.98;;;4.88;;
83423;SDS011;73355;49.044;8.686;2024-01-10T07:43:01;14.75;;;5.20;;
83423;SDS011;73355;49.044;8.686;2024-01-10T07:45:26;12.93;;;4.47;;
83423;SDS011;73355;49.044;8.686;2024-01-10T07:47:52;15.13;;;5.47;;
83423;SDS011;73355;49.044;8.686;2024-01-10T07:50:17;13.85;;;5.15;;
83423;SDS011;73355;49.044;8.686;2024-01-10T07:52:44;13.10;;;5.38;;
83423;SDS011;73355;49.044;8.686;2024-01-10T07:55:11;14.40;;;5.05;;
83423;SDS011;73355;49.044;8.686;2024-01-10T07:57:39;14.40;;;5.65;;
83423;SDS011;73355;49.044;8.686;2024-01-10T08:00:07;12.88;;;5.43;;
83423;SDS011;73355;49.044;8.686;2024-01-10T08:02:35;14.52;;;5.07;;
83423;SDS011;73355;49.044;8.686;2024-01-10T08:05:04;12.98;;;4.90;;
83423;SDS011;73355;49.044;8.686;2024-01-10T08:07:30;15.45;;;5.25;;
83423;SDS011;73355;49.044;8.686;2024-01-10T08:10:00;14.25;;;5.43;;
83423;SDS011;73355;49.044;8.686;2024-01-10T08:12:26;15.35;;;5.07;;
83423;SDS011;73355;49.044;8.686;2024-01-10T08:14:52;14.43;;;4.93;;
83423;SDS011;73355;49.044;8.686;2024-01-10T08:17:17;13.33;;;4.63;;
83423;SDS011;73355;49.044;8.686;2024-01-10T08:19:42;15.00;;;5.47;;
83423;SDS011;73355;49.044;8.686;2024-01-10T08:22:08;14.10;;;5.03;;
83423;SDS011;73355;49.044;8.686;2024-01-10T08:24:34;12.38;;;4.55;;
83423;SDS011;73355;49.044;8.686;2024-01-10T08:26:59;13.85;;;5.45;;
83423;SDS011;73355;49.044;8.686;2024-01-10T08:29:25;16.77;;;5.45;;
83423;SDS011;73355;49.044;8.686;2024-01-10T08:31:55;11.93;;;5.15;;
83423;SDS011;73355;49.044;8.686;2024-01-10T08:34:21;12.82;;;4.90;;
83423;SDS011;73355;49.044;8.686;2024-01-10T08:36:47;13.25;;;5.22;;
83423;SDS011;73355;49.044;8.686;2024-01-10T08:39:19;13.00;;;5.63;;
83423;SDS011;73355;49.044;8.686;2024-01-10T08:41:46;14.55;;;5.47;;
83423;SDS011;73355;49.044;8.686;2024-01-10T08:44:12;15.18;;;5.45;;
83423;SDS011;73355;49.044;8.686;2024-01-10T08:46:38;17.25;;;5.80;;
83423;SDS011;73355;49.044;8.686;2024-01-10T08:49:03;14.50;;;4.72;;
83423;SDS011;73355;49.044;8.686;2024-01-10T08:51:29;16.63;;;5.78;;
83423;SDS011;73355;49.044;8.686;2024-01-10T08:53:55;13.27;;;5.82;;
83423;SDS011;73355;49.044;8.686;2024-01-10T08:56:24;11.48;;;5.05;;
83423;SDS011;73355;49.044;8.686;2024-01-10T08:58:50;13.55;;;5.20;;
83423;SDS011;73355;49.044;8.686;2024-01-10T09:01:16;14.93;;;5.32;;
83423;SDS011;73355;49.044;8.686;2024-01-10T09:03:41;13.57;;;4.72;;
83423;SDS011;73355;49.044;8.686;2024-01-10T09:06:07;13.13;;;5.25;;
83423;SDS011;73355;49.044;8.686;2024-01-10T09:08:33;12.43;;;5.38;;
83423;SDS011;73355;49.044;8.686;2024-01-10T09:11:01;11.93;;;5.18;;
83423;SDS011;73355;49.044;8.686;2024-01-10T09:13:27;10.07;;;4.43;;
83423;SDS011;73355;49.044;8.686;2024-01-10T09:15:52;14.82;;;5.40;;
83423;SDS011;73355;49.044;8.686;2024-01-10T09:18:18;16.08;;;5.65;;
83423;SDS011;73355;49.044;8.686;2024-01-10T09:20:43;14.25;;;5.40;;
83423;SDS011;73355;49.044;8.686;2024-01-10T09:23:09;12.95;;;5.38;;
83423;SDS011;73355;49.044;8.686;2024-01-10T09:25:35;12.55;;;5.30;;
83423;SDS011;73355;49.044;8.686;2024-01-10T09:28:01;15.57;;;5.97;;
83423;SDS011;73355;49.044;8.686;2024-01-10T09:30:26;14.73;;;5.22;;
83423;SDS011;73355;49.044;8.686;2024-01-10T09:32:52;12.10;;;4.97;;
83423;SDS011;73355;49.044;8.686;2024-01-10T09:35:17;13.77;;;5.47;;
83423;SDS011;73355;49.044;8.686;2024-01-10T09:37:43;14.02;;;5.30;;
83423;SDS011;73355;49.044;8.686;2024-01-10T09:40:10;11.98;;;5.03;;
83423;SDS011;73355;49.044;8.686;2024-01-10T09:42:39;15.98;;;5.85;;
83423;SDS011;73355;49.044;8.686;2024-01-10T09:45:05;15.18;;;5.63;;
83423;SDS011;73355;49.044;8.686;2024-01-10T09:47:31;14.13;;;5.63;;
83423;SDS011;73355;49.044;8.686;2024-01-10T09:49:57;18.13;;;5.95;;
83423;SDS011;73355;49.044;8.686;2024-01-10T09:52:24;19.33;;;6.50;;
83423;SDS011;73355;49.044;8.686;2024-01-10T09:54:53;18.77;;;5.82;;
83423;SDS011;73355;49.044;8.686;2024-01-10T09:57:21;14.88;;;5.88;;
83423;SDS011;73355;49.044;8.686;2024-01-10T09:59:48;15.30;;;5.93;;
83423;SDS011;73355;49.044;8.686;2024-01-10T10:02:16;13.10;;;5.93;;
83423;SDS011;73355;49.044;8.686;2024-01-10T10:04:44;15.73;;;6.50;;
83423;SDS011;73355;49.044;8.686;2024-01-10T10:07:24;12.45;;;5.45;;
83423;SDS011;73355;49.044;8.686;2024-01-10T10:09:50;18.27;;;6.40;;
83423;SDS011;73355;49.044;8.686;2024-01-10T10:12:18;13.77;;;5.13;;
83423;SDS011;73355;49.044;8.686;2024-01-10T10:14:43;13.00;;;5.60;;
83423;SDS011;73355;49.044;8.686;2024-01-10T10:17:16;16.38;;;5.88;;
83423;SDS011;73355;49.044;8.686;2024-01-10T10:19:43;17.38;;;5.82;;
83423;SDS011;73355;49.044;8.686;2024-01-10T10:22:09;16.80;;;5.97;;
83423;SDS011;73355;49.044;8.686;2024-01-10T10:24:35;12.85;;;5.90;;
83423;SDS011;73355;49.044;8.686;2024-01-10T10:27:00;16.00;;;6.10;;
83423;SDS011;73355;49.044;8.686;2024-01-10T10:29:26;13.73;;;6.10;;
83423;SDS011;73355;49.044;8.686;2024-01-10T10:31:51;18.40;;;6.43;;
83423;SDS011;73355;49.044;8.686;2024-01-10T10:34:23;14.30;;;5.93;;
83423;SDS011;73355;49.044;8.686;2024-01-10T10:36:48;15.23;;;6.45;;
83423;SDS011;73355;49.044;8.686;2024-01-10T10:39:17;15.43;;;6.35;;
83423;SDS011;73355;49.044;8.686;2024-01-10T10:41:42;16.92;;;6.53;;
83423;SDS011;73355;49.044;8.686;2024-01-10T10:44:08;15.77;;;6.72;;
83423;SDS011;73355;49.044;8.686;2024-01-10T10:46:35;22.48;;;7.03;;
83423;SDS011;73355;49.044;8.686;2024-01-10T10:49:05;16.48;;;6.50;;
83423;SDS011;73355;49.044;8.686;2024-01-10T10:51:34;14.90;;;6.60;;
83423;SDS011;73355;49.044;8.686;2024-01-10T10:54:02;13.07;;;6.25;;
83423;SDS011;73355;49.044;8.686;2024-01-10T10:56:29;18.00;;;6.47;;
83423;SDS011;73355;49.044;8.686;2024-01-10T10:58:56;17.40;;;6.53;;
83423;SDS011;73355;49.044;8.686;2024-01-10T11:01:23;12.95;;;6.18;;
83423;SDS011;73355;49.044;8.686;2024-01-10T11:03:49;18.50;;;7.03;;
83423;SDS011;73355;49.044;8.686;2024-01-10T11:06:14;18.67;;;6.65;;
83423;SDS011;73355;49.044;8.686;2024-01-10T11:08:43;17.17;;;6.60;;
83423;SDS011;73355;49.044;8.686;2024-01-10T11:11:15;15.63;;;6.75;;
83423;SDS011;73355;49.044;8.686;2024-01-10T11:22:38;14.70;;;6.57;;
83423;SDS011;73355;49.044;8.686;2024-01-10T11:25:15;15.40;;;6.65;;
83423;SDS011;73355;49.044;8.686;2024-01-10T11:27:43;17.60;;;6.88;;
83423;SDS011;73355;49.044;8.686;2024-01-10T11:30:08;16.83;;;6.50;;
83423;SDS011;73355;49.044;8.686;2024-01-10T11:32:36;17.98;;;7.68;;
83423;SDS011;73355;49.044;8.686;2024-01-10T11:35:05;13.82;;;6.03;;
83423;SDS011;73355;49.044;8.686;2024-01-10T11:37:43;18.25;;;7.18;;
83423;SDS011;73355;49.044;8.686;2024-01-10T11:40:10;17.38;;;7.35;;
83423;SDS011;73355;49.044;8.686;2024-01-10T11:42:43;18.25;;;7.07;;
83423;SDS011;73355;49.044;8.686;2024-01-10T11:45:16;19.25;;;7.03;;
83423;SDS011;73355;49.044;8.686;2024-01-10T11:47:56;16.70;;;7.25;;
83423;SDS011;73355;49.044;8.686;2024-01-10T11:50:22;19.27;;;8.07;;
83423;SDS011;73355;49.044;8.686;2024-01-10T11:58:17;16.70;;;7.38;;
83423;SDS011;73355;49.044;8.686;2024-01-10T12:00:42;20.40;;;8.57;;
83423;SDS011;73355;49.044;8.686;2024-01-10T12:03:09;17.10;;;7.28;;
83423;SDS011;73355;49.044;8.686;2024-01-10T12:05:36;16.92;;;7.55;;
83423;SDS011;73355;49.044;8.686;2024-01-10T12:08:05;14.80;;;7.17;;
83423;SDS011;73355;49.044;8.686;2024-01-10T12:10:31;19.67;;;8.02;;
83423;SDS011;73355;49.044;8.686;2024-01-10T12:13:01;18.42;;;8.05;;
83423;SDS011;73355;49.044;8.686;2024-01-10T12:15:27;17.55;;;7.95;;
83423;SDS011;73355;49.044;8.686;2024-01-10T12:17:52;20.20;;;8.75;;
83423;SDS011;73355;49.044;8.686;2024-01-10T12:20:17;20.27;;;8.77;;
83423;SDS011;73355;49.044;8.686;2024-01-10T12:22:43;20.27;;;9.25;;
83423;SDS011;73355;49.044;8.686;2024-01-10T12:25:08;22.08;;;8.98;;
83423;SDS011;73355;49.044;8.686;2024-01-10T12:27:34;20.23;;;7.65;;
83423;SDS011;73355;49.044;8.686;2024-01-10T12:30:00;17.35;;;8.30;;
83423;SDS011;73355;49.044;8.686;2024-01-10T12:32:27;23.73;;;9.70;;
83423;SDS011;73355;49.044;8.686;2024-01-10T12:35:02;16.80;;;8.15;;
83423;SDS011;73355;49.044;8.686;2024-01-10T12:37:29;19.23;;;8.38;;
83423;SDS011;73355;49.044;8.686;2024-01-10T12:39:55;16.55;;;7.53;;
83423;SDS011;73355;49.044;8.686;2024-01-10T12:42:21;16.55;;;7.57;;
83423;SDS011;73355;49.044;8.686;2024-01-10T12:44:47;19.00;;;8.20;;
83423;SDS011;73355;49.044;8.686;2024-01-10T12:47:19;16.75;;;7.80;;
83423;SDS011;73355;49.044;8.686;2024-01-10T12:49:45;18.15;;;7.68;;
83423;SDS011;73355;49.044;8.686;2024-01-10T12:52:11;18.95;;;9.05;;
83423;SDS011;73355;49.044;8.686;2024-01-10T12:57:04;16.20;;;6.70;;
83423;SDS011;73355;49.044;8.686;2024-01-10T12:59:29;21.30;;;7.65;;
83423;SDS011;73355;49.044;8.686;2024-01-10T13:01:54;16.37;;;7.53;;
83423;SDS011;73355;49.044;8.686;2024-01-10T13:04:20;17.83;;;8.43;;
83423;SDS011;73355;49.044;8.686;2024-01-10T13:06:45;17.15;;;7.80;;
83423;SDS011;73355;49.044;8.686;2024-01-10T13:09:10;14.43;;;7.27;;
83423;SDS011;73355;49.044;8.686;2024-01-10T13:11:36;17.88;;;8.13;;
83423;SDS011;73355;49.044;8.686;2024-01-10T13:14:01;19.77;;;8.00;;
83423;SDS011;73355;49.044;8.686;2024-01-10T13:16:27;16.38;;;7.75;;
83423;SDS011;73355;49.044;8.686;2024-01-10T13:18:52;18.40;;;8.48;;
83423;SDS011;73355;49.044;8.686;2024-01-10T13:21:19;18.33;;;7.75;;
83423;SDS011;73355;49.044;8.686;2024-01-10T13:23:45;19.92;;;8.23;;
83423;SDS011;73355;49.044;8.686;2024-01-10T13:26:11;20.60;;;8.27;;
83423;SDS011;73355;49.044;8.686;2024-01-10T13:28:36;17.65;;;8.25;;
83423;SDS011;73355;49.044;8.686;2024-01-10T13:31:02;18.90;;;8.77;;
83423;SDS011;73355;49.044;8.686;2024-01-10T13:33:28;16.77;;;7.95;;
83423;SDS011;73355;49.044;8.686;2024-01-10T13:35:54;17.65;;;8.27;;
83423;SDS011;73355;49.044;8.686;2024-01-10T13:38:19;16.23;;;7.90;;
83423;SDS011;73355;49.044;8.686;2024-01-10T13:40:45;19.17;;;8.65;;
83423;SDS011;73355;49.044;8.686;2024-01-10T13:43:10;15.63;;;7.63;;
83423;SDS011;73355;49.044;8.686;2024-01-10T13:45:36;18.73;;;8.32;;
83423;SDS011;73355;49.044;8.686;2024-01-10T13:48:01;15.37;;;7.80;;
83423;SDS011;73355;49.044;8.686;2024-01-10T13:50:27;17.98;;;8.35;;
83423;SDS011;73355;49.044;8.686;2024-01-10T13:52:53;18.33;;;7.95;;
83423;SDS011;73355;49.044;8.686;2024-01-10T13:55:19;21.35;;;8.60;;
83423;SDS011;73355;49.044;8.686;2024-01-10T13:57:44;17.48;;;7.53;;
83423;SDS011;73355;49.044;8.686;2024-01-10T14:00:09;18.77;;;8.43;;
83423;SDS011;73355;49.044;8.686;2024-01-10T14:02:41;17.90;;;7.75;;
83423;SDS011;73355;49.044;8.686;2024-01-10T14:05:07;18.20;;;8.13;;
83423;SDS011;73355;49.044;8.686;2024-01-10T14:07:34;16.42;;;8.30;;
83423;SDS011;73355;49.044;8.686;2024-01-10T14:10:00;18.00;;;8.10;;
83423;SDS011;73355;49.044;8.686;2024-01-10T14:12:26;15.93;;;7.85;;
83423;SDS011;73355;49.044;8.686;2024-01-10T14:14:52;19.25;;;8.05;;
83423;SDS011;73355;49.044;8.686;2024-01-10T14:17:18;20.85;;;7.97;;
83423;SDS011;73355;49.044;8.686;2024-01-10T14:19:43;22.43;;;8.70;;
83423;SDS011;73355;49.044;8.686;2024-01-10T14:22:09;20.38;;;8.95;;
83423;SDS011;73355;49.044;8.686;2024-01-10T14:24:35;18.20;;;9.43;;
83423;SDS011;73355;49.044;8.686;2024-01-10T14:27:00;20.33;;;9.13;;
83423;SDS011;73355;49.044;8.686;2024-01-10T14:29:25;20.57;;;8.63;;
83423;SDS011;73355;49.044;8.686;2024-01-10T14:31:51;24.73;;;10.60;;
83423;SDS011;73355;49.044;8.686;2024-01-10T14:34:16;20.73;;;9.47;;
83423;SDS011;73355;49.044;8.686;2024-01-10T14:36:41;22.02;;;8.75;;
83423;SDS011;73355;49.044;8.686;2024-01-10T14:39:07;21.27;;;9.03;;
83423;SDS011;73355;49.044;8.686;2024-01-10T14:41:32;19.95;;;8.48;;
83423;SDS011;73355;49.044;8.686;2024-01-10T14:46:24;18.43;;;7.87;;
83423;SDS011;73355;49.044;8.686;2024-01-10T14:48:50;21.38;;;8.75;;
83423;SDS011;73355;49.044;8.686;2024-01-10T14:51:15;19.35;;;8.20;;
83423;SDS011;73355;49.044;8.686;2024-01-10T14:53:41;17.90;;;7.72;;